sensor_id;sensor_type;location;lat;lon;timestamp;P1;durP1;ratioP1;P2;durP2;ratioP2
34433;SDS011;34290;48.562;13.384;2022-11-15T00:00:45;18.77;;;8.60;;
34433;SDS011;34290;48.562;13.384;2022-11-15T00:03:13;19.57;;;8.40;;
34433;SDS011;34290;48.562;13.384;2022-11-15T00:05:41;21.10;;;8.93;;
34433;SDS011;34290;48.562;13.384;2022-11-15T00:08:09;19.07;;;8.73;;
34433;SDS011;34290;48.562;13.384;2022-11-15T00:10:37;24.40;;;10.10;;
34433;SDS011;34290;48.562;13.384;2022-11-15T00:13:04;20.20;;;8.80;;
34433;SDS011;34290;48.562;13.384;2022-11-15T00:15:34;24.50;;;9.60;;
34433;SDS011;34290;48.562;13.384;2022-11-15T00:18:02;22.70;;;9.67;;
34433;SDS011;34290;48.562;13.384;2022-11-15T00:20:30;20.23;;;9.43;;
34433;SDS011;34290;48.562;13.384;2022-11-15T00:22:57;21.73;;;10.37;;
34433;SDS011;34290;48.562;13.384;2022-11-15T00:25:25;24.47;;;9.70;;
34433;SDS011;34290;48.562;13.384;2022-11-15T00:27:54;19.37;;;9.47;;
34433;SDS011;34290;48.562;13.384;2022-11-15T00:30:21;20.93;;;8.00;;
34433;SDS011;34290;48.562;13.384;2022-11-15T00:32:49;17.73;;;8.57;;
34433;SDS011;34290;48.562;13.384;2022-11-15T00:35:16;21.13;;;8.40;;
34433;SDS011;34290;48.562;13.384;2022-11-15T00:37:43;20.23;;;8.53;;
34433;SDS011;34290;48.562;13.384;2022-11-15T00:40:12;19.67;;;8.57;;
34433;SDS011;34290;48.562;13.384;2022-11-15T00:42:41;17.63;;;8.20;;
34433;SDS011;34290;48.562;13.384;2022-11-15T00:45:08;19.40;;;8.90;;
34433;SDS011;34290;48.562;13.384;2022-11-15T00:47:36;18.53;;;8.43;;
34433;SDS011;34290;48.562;13.384;2022-11-15T00:50:03;20.03;;;8.80;;
34433;SDS011;34290;48.562;13.384;2022-11-15T00:52:31;25.83;;;10.43;;
34433;SDS011;34290;48.562;13.384;2022-11-15T00:54:58;39.43;;;10.70;;
34433;SDS011;34290;48.562;13.384;2022-11-15T00:57:25;37.20;;;10.93;;
34433;SDS011;34290;48.562;13.384;2022-11-15T00:59:53;25.33;;;10.80;;
34433;SDS011;34290;48.562;13.384;2022-11-15T01:02:20;29.17;;;10.93;;
34433;SDS011;34290;48.562;13.384;2022-11-15T01:04:47;23.50;;;10.10;;
34433;SDS011;34290;48.562;13.384;2022-11-15T01:07:14;24.83;;;10.60;;
34433;SDS011;34290;48.562;13.384;2022-11-15T01:09:41;26.53;;;11.20;;
34433;SDS011;34290;48.562;13.384;2022-11-15T01:12:08;23.07;;;10.70;;
34433;SDS011;34290;48.562;13.384;2022-11-15T01:14:35;24.80;;;10.40;;
34433;SDS011;34290;48.562;13.384;2022-11-15T01:17:03;27.30;;;11.30;;
34433;SDS011;34290;48.562;13.384;2022-11-15T01:19:30;27.50;;;11.23;;
34433;SDS011;34290;48.562;13.384;2022-11-15T01:21:57;28.60;;;13.03;;
34433;SDS011;34290;48.562;13.384;2022-11-15T01:24:24;25.90;;;12.20;;
34433;SDS011;34290;48.562;13.384;2022-11-15T01:26:51;30.93;;;12.63;;
34433;SDS011;34290;48.562;13.384;2022-11-15T01:29:22;23.83;;;11.20;;
34433;SDS011;34290;48.562;13.384;2022-11-15T01:31:49;26.53;;;10.77;;
34433;SDS011;34290;48.562;13.384;2022-11-15T01:34:17;25.50;;;9.57;;
34433;SDS011;34290;48.562;13.384;2022-11-15T01:36:44;20.43;;;9.47;;
34433;SDS011;34290;48.562;13.384;2022-11-15T01:39:11;23.37;;;10.27;;
34433;SDS011;34290;48.562;13.384;2022-11-15T01:41:38;21.93;;;9.83;;
34433;SDS011;34290;48.562;13.384;2022-11-15T01:47:04;42.70;;;10.47;;
34433;SDS011;34290;48.562;13.384;2022-11-15T01:49:35;24.73;;;10.13;;
34433;SDS011;34290;48.562;13.384;2022-11-15T01:52:05;49.00;;;11.13;;
34433;SDS011;34290;48.562;13.384;2022-11-15T01:54:36;21.60;;;9.53;;
34433;SDS011;34290;48.562;13.384;2022-11-15T01:57:04;21.83;;;9.80;;
34433;SDS011;34290;48.562;13.384;2022-11-15T01:59:34;28.07;;;10.10;;
34433;SDS011;34290;48.562;13.384;2022-11-15T02:02:02;40.20;;;10.47;;
34433;SDS011;34290;48.562;13.384;2022-11-15T02:04:30;39.03;;;10.67;;
34433;SDS011;34290;48.562;13.384;2022-11-15T02:07:01;30.80;;;9.87;;
34433;SDS011;34290;48.562;13.384;2022-11-15T02:09:30;47.53;;;10.50;;
34433;SDS011;34290;48.562;13.384;2022-11-15T02:11:57;32.77;;;10.40;;
34433;SDS011;34290;48.562;13.384;2022-11-15T02:14:26;26.83;;;9.93;;
34433;SDS011;34290;48.562;13.384;2022-11-15T02:16:57;19.60;;;9.50;;
34433;SDS011;34290;48.562;13.384;2022-11-15T02:19:32;30.37;;;10.03;;
34433;SDS011;34290;48.562;13.384;2022-11-15T02:22:20;22.50;;;9.80;;
34433;SDS011;34290;48.562;13.384;2022-11-15T02:25:03;18.70;;;9.17;;
34433;SDS011;34290;48.562;13.384;2022-11-15T02:27:57;18.57;;;8.70;;
34433;SDS011;34290;48.562;13.384;2022-11-15T02:30:59;30.53;;;9.53;;
34433;SDS011;34290;48.562;13.384;2022-11-15T02:33:34;24.73;;;10.40;;
34433;SDS011;34290;48.562;13.384;2022-11-15T02:36:05;19.80;;;9.17;;
34433;SDS011;34290;48.562;13.384;2022-11-15T02:38:40;26.67;;;9.87;;
34433;SDS011;34290;48.562;13.384;2022-11-15T02:41:13;29.67;;;10.90;;
34433;SDS011;34290;48.562;13.384;2022-11-15T02:43:45;23.27;;;9.93;;
34433;SDS011;34290;48.562;13.384;2022-11-15T02:46:27;22.73;;;10.23;;
34433;SDS011;34290;48.562;13.384;2022-11-15T02:49:16;19.53;;;9.53;;
34433;SDS011;34290;48.562;13.384;2022-11-15T02:51:45;22.00;;;10.33;;
34433;SDS011;34290;48.562;13.384;2022-11-15T02:54:15;101.67;;;14.47;;
34433;SDS011;34290;48.562;13.384;2022-11-15T02:56:46;46.50;;;11.70;;
34433;SDS011;34290;48.562;13.384;2022-11-15T02:59:17;24.77;;;10.30;;
34433;SDS011;34290;48.562;13.384;2022-11-15T03:02:06;53.97;;;11.37;;
34433;SDS011;34290;48.562;13.384;2022-11-15T03:04:48;48.43;;;11.13;;
34433;SDS011;34290;48.562;13.384;2022-11-15T03:07:23;21.70;;;9.47;;
34433;SDS011;34290;48.562;13.384;2022-11-15T03:09:56;24.37;;;10.83;;
34433;SDS011;34290;48.562;13.384;2022-11-15T03:12:33;25.07;;;10.83;;
34433;SDS011;34290;48.562;13.384;2022-11-15T03:15:06;21.43;;;10.27;;
34433;SDS011;34290;48.562;13.384;2022-11-15T03:17:40;25.30;;;10.73;;
34433;SDS011;34290;48.562;13.384;2022-11-15T03:20:13;33.83;;;10.50;;
34433;SDS011;34290;48.562;13.384;2022-11-15T03:22:44;23.40;;;10.87;;
34433;SDS011;34290;48.562;13.384;2022-11-15T03:25:19;25.17;;;10.60;;
34433;SDS011;34290;48.562;13.384;2022-11-15T03:27:48;26.90;;;11.13;;
34433;SDS011;34290;48.562;13.384;2022-11-15T03:30:18;24.50;;;10.10;;
34433;SDS011;34290;48.562;13.384;2022-11-15T03:32:49;23.47;;;9.83;;
34433;SDS011;34290;48.562;13.384;2022-11-15T03:35:20;24.77;;;10.77;;
34433;SDS011;34290;48.562;13.384;2022-11-15T03:37:49;30.40;;;11.13;;
34433;SDS011;34290;48.562;13.384;2022-11-15T03:40:21;29.30;;;10.97;;
34433;SDS011;34290;48.562;13.384;2022-11-15T03:42:53;30.87;;;10.97;;
34433;SDS011;34290;48.562;13.384;2022-11-15T03:45:27;34.13;;;11.87;;
34433;SDS011;34290;48.562;13.384;2022-11-15T03:48:00;30.50;;;11.33;;
34433;SDS011;34290;48.562;13.384;2022-11-15T03:50:31;25.33;;;10.47;;
34433;SDS011;34290;48.562;13.384;2022-11-15T03:52:58;25.83;;;9.93;;
34433;SDS011;34290;48.562;13.384;2022-11-15T03:55:25;29.17;;;11.03;;
34433;SDS011;34290;48.562;13.384;2022-11-15T03:57:53;22.97;;;10.07;;
34433;SDS011;34290;48.562;13.384;2022-11-15T04:00:23;24.30;;;10.67;;
34433;SDS011;34290;48.562;13.384;2022-11-15T04:02:51;25.27;;;10.43;;
34433;SDS011;34290;48.562;13.384;2022-11-15T04:05:19;21.77;;;9.87;;
34433;SDS011;34290;48.562;13.384;2022-11-15T04:07:47;26.03;;;10.33;;
34433;SDS011;34290;48.562;13.384;2022-11-15T04:10:15;22.77;;;9.93;;
34433;SDS011;34290;48.562;13.384;2022-11-15T04:12:43;31.43;;;11.97;;
34433;SDS011;34290;48.562;13.384;2022-11-15T04:15:13;26.43;;;11.50;;
34433;SDS011;34290;48.562;13.384;2022-11-15T04:17:42;29.30;;;11.20;;
34433;SDS011;34290;48.562;13.384;2022-11-15T04:20:11;31.50;;;10.73;;
34433;SDS011;34290;48.562;13.384;2022-11-15T04:22:59;27.33;;;11.83;;
34433;SDS011;34290;48.562;13.384;2022-11-15T04:25:45;34.47;;;11.57;;
34433;SDS011;34290;48.562;13.384;2022-11-15T04:28:15;28.13;;;11.50;;
34433;SDS011;34290;48.562;13.384;2022-11-15T04:30:42;28.20;;;11.07;;
34433;SDS011;34290;48.562;13.384;2022-11-15T04:33:09;24.30;;;10.53;;
34433;SDS011;34290;48.562;13.384;2022-11-15T04:35:36;22.77;;;9.63;;
34433;SDS011;34290;48.562;13.384;2022-11-15T04:38:05;24.13;;;10.47;;
34433;SDS011;34290;48.562;13.384;2022-11-15T04:40:32;23.40;;;10.30;;
34433;SDS011;34290;48.562;13.384;2022-11-15T04:42:59;25.40;;;10.23;;
34433;SDS011;34290;48.562;13.384;2022-11-15T04:45:29;19.30;;;9.13;;
34433;SDS011;34290;48.562;13.384;2022-11-15T04:47:56;21.53;;;9.90;;
34433;SDS011;34290;48.562;13.384;2022-11-15T04:50:26;21.37;;;9.67;;
34433;SDS011;34290;48.562;13.384;2022-11-15T04:52:54;22.70;;;9.50;;
34433;SDS011;34290;48.562;13.384;2022-11-15T04:55:22;23.80;;;10.67;;
34433;SDS011;34290;48.562;13.384;2022-11-15T04:57:56;29.00;;;10.07;;
34433;SDS011;34290;48.562;13.384;2022-11-15T05:00:24;27.73;;;10.33;;
34433;SDS011;34290;48.562;13.384;2022-11-15T05:02:55;26.63;;;10.57;;
34433;SDS011;34290;48.562;13.384;2022-11-15T05:05:40;22.27;;;10.00;;
34433;SDS011;34290;48.562;13.384;2022-11-15T05:08:08;24.60;;;10.10;;
34433;SDS011;34290;48.562;13.384;2022-11-15T05:10:39;23.13;;;10.23;;
34433;SDS011;34290;48.562;13.384;2022-11-15T05:13:06;22.30;;;10.30;;
34433;SDS011;34290;48.562;13.384;2022-11-15T05:15:33;25.20;;;11.43;;
34433;SDS011;34290;48.562;13.384;2022-11-15T05:18:01;21.13;;;9.53;;
34433;SDS011;34290;48.562;13.384;2022-11-15T05:20:28;22.03;;;9.93;;
34433;SDS011;34290;48.562;13.384;2022-11-15T05:22:55;22.17;;;10.03;;
34433;SDS011;34290;48.562;13.384;2022-11-15T05:25:25;26.37;;;11.13;;
34433;SDS011;34290;48.562;13.384;2022-11-15T05:27:53;23.13;;;10.07;;
34433;SDS011;34290;48.562;13.384;2022-11-15T05:30:21;23.70;;;9.63;;
34433;SDS011;34290;48.562;13.384;2022-11-15T05:32:48;22.93;;;10.37;;
34433;SDS011;34290;48.562;13.384;2022-11-15T05:35:17;24.23;;;10.80;;
34433;SDS011;34290;48.562;13.384;2022-11-15T05:37:48;22.70;;;10.13;;
34433;SDS011;34290;48.562;13.384;2022-11-15T05:40:16;20.83;;;9.73;;
34433;SDS011;34290;48.562;13.384;2022-11-15T05:42:45;28.03;;;10.63;;
34433;SDS011;34290;48.562;13.384;2022-11-15T05:45:14;29.87;;;10.60;;
34433;SDS011;34290;48.562;13.384;2022-11-15T05:47:42;50.97;;;12.57;;
34433;SDS011;34290;48.562;13.384;2022-11-15T05:50:10;24.20;;;10.37;;
34433;SDS011;34290;48.562;13.384;2022-11-15T05:52:39;27.33;;;10.63;;
34433;SDS011;34290;48.562;13.384;2022-11-15T05:55:06;28.53;;;10.40;;
34433;SDS011;34290;48.562;13.384;2022-11-15T05:57:35;23.60;;;10.03;;
34433;SDS011;34290;48.562;13.384;2022-11-15T06:00:03;24.97;;;10.63;;
34433;SDS011;34290;48.562;13.384;2022-11-15T06:02:32;25.20;;;10.30;;
34433;SDS011;34290;48.562;13.384;2022-11-15T06:04:59;28.33;;;10.57;;
34433;SDS011;34290;48.562;13.384;2022-11-15T06:07:26;21.00;;;10.03;;
34433;SDS011;34290;48.562;13.384;2022-11-15T06:09:55;26.33;;;11.00;;
34433;SDS011;34290;48.562;13.384;2022-11-15T06:12:25;23.70;;;10.37;;
34433;SDS011;34290;48.562;13.384;2022-11-15T06:14:52;26.17;;;11.97;;
34433;SDS011;34290;48.562;13.384;2022-11-15T06:17:19;27.00;;;10.83;;
34433;SDS011;34290;48.562;13.384;2022-11-15T06:19:47;26.67;;;9.70;;
34433;SDS011;34290;48.562;13.384;2022-11-15T06:22:14;23.47;;;10.77;;
34433;SDS011;34290;48.562;13.384;2022-11-15T06:24:41;26.30;;;11.10;;
34433;SDS011;34290;48.562;13.384;2022-11-15T06:27:09;27.67;;;10.83;;
34433;SDS011;34290;48.562;13.384;2022-11-15T06:29:37;22.23;;;9.53;;
34433;SDS011;34290;48.562;13.384;2022-11-15T06:32:04;24.87;;;10.93;;
34433;SDS011;34290;48.562;13.384;2022-11-15T06:34:31;22.50;;;9.83;;
34433;SDS011;34290;48.562;13.384;2022-11-15T06:37:02;29.73;;;12.63;;
34433;SDS011;34290;48.562;13.384;2022-11-15T06:39:29;25.57;;;10.50;;
34433;SDS011;34290;48.562;13.384;2022-11-15T06:41:56;21.57;;;10.60;;
34433;SDS011;34290;48.562;13.384;2022-11-15T06:44:23;30.33;;;13.17;;
34433;SDS011;34290;48.562;13.384;2022-11-15T06:47:00;27.67;;;11.50;;
34433;SDS011;34290;48.562;13.384;2022-11-15T06:49:31;27.13;;;12.23;;
34433;SDS011;34290;48.562;13.384;2022-11-15T06:51:58;29.53;;;12.80;;
34433;SDS011;34290;48.562;13.384;2022-11-15T06:54:26;28.90;;;11.73;;
34433;SDS011;34290;48.562;13.384;2022-11-15T06:56:54;31.00;;;11.93;;
34433;SDS011;34290;48.562;13.384;2022-11-15T06:59:21;26.87;;;11.57;;
34433;SDS011;34290;48.562;13.384;2022-11-15T07:01:48;21.70;;;10.43;;
34433;SDS011;34290;48.562;13.384;2022-11-15T07:04:16;21.67;;;10.77;;
34433;SDS011;34290;48.562;13.384;2022-11-15T07:06:45;23.90;;;11.00;;
34433;SDS011;34290;48.562;13.384;2022-11-15T07:09:15;19.80;;;9.90;;
34433;SDS011;34290;48.562;13.384;2022-11-15T07:11:43;15.90;;;8.63;;
34433;SDS011;34290;48.562;13.384;2022-11-15T07:14:10;22.80;;;8.80;;
34433;SDS011;34290;48.562;13.384;2022-11-15T07:16:38;17.00;;;8.50;;
34433;SDS011;34290;48.562;13.384;2022-11-15T07:19:08;15.10;;;8.70;;
34433;SDS011;34290;48.562;13.384;2022-11-15T07:21:37;15.90;;;8.43;;
34433;SDS011;34290;48.562;13.384;2022-11-15T07:24:04;16.77;;;8.03;;
34433;SDS011;34290;48.562;13.384;2022-11-15T07:26:32;17.30;;;8.80;;
34433;SDS011;34290;48.562;13.384;2022-11-15T07:29:00;21.77;;;9.30;;
34433;SDS011;34290;48.562;13.384;2022-11-15T07:31:27;23.60;;;8.87;;
34433;SDS011;34290;48.562;13.384;2022-11-15T07:33:55;26.07;;;9.10;;
34433;SDS011;34290;48.562;13.384;2022-11-15T07:36:22;19.87;;;8.93;;
34433;SDS011;34290;48.562;13.384;2022-11-15T07:38:49;23.53;;;8.97;;
34433;SDS011;34290;48.562;13.384;2022-11-15T07:41:19;25.87;;;8.47;;
34433;SDS011;34290;48.562;13.384;2022-11-15T07:43:46;31.57;;;9.70;;
34433;SDS011;34290;48.562;13.384;2022-11-15T07:46:15;18.90;;;9.00;;
34433;SDS011;34290;48.562;13.384;2022-11-15T07:48:42;17.63;;;8.13;;
34433;SDS011;34290;48.562;13.384;2022-11-15T07:51:17;20.40;;;7.63;;
34433;SDS011;34290;48.562;13.384;2022-11-15T07:53:44;19.00;;;6.90;;
34433;SDS011;34290;48.562;13.384;2022-11-15T07:56:11;22.73;;;6.93;;
34433;SDS011;34290;48.562;13.384;2022-11-15T07:58:38;13.83;;;7.20;;
34433;SDS011;34290;48.562;13.384;2022-11-15T08:01:06;14.03;;;7.13;;
34433;SDS011;34290;48.562;13.384;2022-11-15T08:03:36;20.70;;;7.50;;
34433;SDS011;34290;48.562;13.384;2022-11-15T08:06:03;15.40;;;7.00;;
34433;SDS011;34290;48.562;13.384;2022-11-15T08:08:31;19.30;;;7.50;;
34433;SDS011;34290;48.562;13.384;2022-11-15T08:10:58;14.23;;;6.60;;
34433;SDS011;34290;48.562;13.384;2022-11-15T08:13:25;11.93;;;6.20;;
34433;SDS011;34290;48.562;13.384;2022-11-15T08:15:56;11.50;;;6.40;;
34433;SDS011;34290;48.562;13.384;2022-11-15T08:18:24;11.90;;;6.20;;
34433;SDS011;34290;48.562;13.384;2022-11-15T08:20:52;11.95;;;6.35;;
34433;SDS011;34290;48.562;13.384;2022-11-15T08:23:24;15.32;;;6.32;;
34433;SDS011;34290;48.562;13.384;2022-11-15T08:25:58;13.50;;;7.95;;
34433;SDS011;34290;48.562;13.384;2022-11-15T08:28:26;17.65;;;9.07;;
34433;SDS011;34290;48.562;13.384;2022-11-15T08:30:53;17.13;;;7.15;;
34433;SDS011;34290;48.562;13.384;2022-11-15T08:33:23;15.48;;;7.47;;
34433;SDS011;34290;48.562;13.384;2022-11-15T08:35:50;9.70;;;5.75;;
34433;SDS011;34290;48.562;13.384;2022-11-15T08:38:22;10.30;;;5.78;;
34433;SDS011;34290;48.562;13.384;2022-11-15T08:40:49;11.73;;;5.68;;
34433;SDS011;34290;48.562;13.384;2022-11-15T08:43:17;10.18;;;5.50;;
34433;SDS011;34290;48.562;13.384;2022-11-15T08:45:44;9.73;;;5.78;;
34433;SDS011;34290;48.562;13.384;2022-11-15T08:48:11;9.18;;;5.72;;
34433;SDS011;34290;48.562;13.384;2022-11-15T08:50:38;9.32;;;5.60;;
34433;SDS011;34290;48.562;13.384;2022-11-15T08:53:07;9.77;;;5.55;;
34433;SDS011;34290;48.562;13.384;2022-11-15T08:55:35;10.25;;;6.30;;
34433;SDS011;34290;48.562;13.384;2022-11-15T08:58:03;9.95;;;5.88;;
34433;SDS011;34290;48.562;13.384;2022-11-15T09:00:31;10.48;;;6.05;;
34433;SDS011;34290;48.562;13.384;2022-11-15T09:02:58;8.32;;;5.53;;
34433;SDS011;34290;48.562;13.384;2022-11-15T09:05:26;10.10;;;5.28;;
34433;SDS011;34290;48.562;13.384;2022-11-15T09:07:53;10.02;;;5.22;;
34433;SDS011;34290;48.562;13.384;2022-11-15T09:10:22;12.50;;;5.72;;
34433;SDS011;34290;48.562;13.384;2022-11-15T09:12:49;11.02;;;6.70;;
34433;SDS011;34290;48.562;13.384;2022-11-15T09:15:20;11.15;;;6.07;;
34433;SDS011;34290;48.562;13.384;2022-11-15T09:17:46;9.57;;;6.05;;
34433;SDS011;34290;48.562;13.384;2022-11-15T09:20:16;10.15;;;5.80;;
34433;SDS011;34290;48.562;13.384;2022-11-15T09:22:46;14.20;;;6.50;;
34433;SDS011;34290;48.562;13.384;2022-11-15T09:25:13;12.55;;;5.65;;
34433;SDS011;34290;48.562;13.384;2022-11-15T09:27:41;8.80;;;5.80;;
34433;SDS011;34290;48.562;13.384;2022-11-15T09:30:09;12.00;;;5.55;;
34433;SDS011;34290;48.562;13.384;2022-11-15T09:32:36;9.65;;;6.07;;
34433;SDS011;34290;48.562;13.384;2022-11-15T09:35:03;15.18;;;6.70;;
34433;SDS011;34290;48.562;13.384;2022-11-15T09:37:31;9.85;;;6.32;;
34433;SDS011;34290;48.562;13.384;2022-11-15T09:39:58;11.13;;;6.13;;
34433;SDS011;34290;48.562;13.384;2022-11-15T09:42:29;9.52;;;6.20;;
34433;SDS011;34290;48.562;13.384;2022-11-15T09:45:13;12.38;;;6.03;;
34433;SDS011;34290;48.562;13.384;2022-11-15T09:47:55;10.88;;;6.35;;
34433;SDS011;34290;48.562;13.384;2022-11-15T09:50:52;11.48;;;6.22;;
34433;SDS011;34290;48.562;13.384;2022-11-15T09:53:25;13.18;;;6.85;;
34433;SDS011;34290;48.562;13.384;2022-11-15T09:55:57;10.35;;;6.22;;
34433;SDS011;34290;48.562;13.384;2022-11-15T09:58:27;11.85;;;6.75;;
34433;SDS011;34290;48.562;13.384;2022-11-15T10:01:04;11.93;;;7.00;;
34433;SDS011;34290;48.562;13.384;2022-11-15T10:03:34;12.60;;;6.63;;
34433;SDS011;34290;48.562;13.384;2022-11-15T10:06:09;14.13;;;6.85;;
34433;SDS011;34290;48.562;13.384;2022-11-15T10:08:50;13.30;;;6.55;;
34433;SDS011;34290;48.562;13.384;2022-11-15T10:11:23;11.57;;;6.70;;
34433;SDS011;34290;48.562;13.384;2022-11-15T10:13:55;11.52;;;6.95;;
34433;SDS011;34290;48.562;13.384;2022-11-15T10:16:34;12.95;;;7.20;;
34433;SDS011;34290;48.562;13.384;2022-11-15T10:19:18;14.68;;;7.50;;
34433;SDS011;34290;48.562;13.384;2022-11-15T10:21:52;17.40;;;8.35;;
34433;SDS011;34290;48.562;13.384;2022-11-15T10:24:27;12.98;;;7.55;;
34433;SDS011;34290;48.562;13.384;2022-11-15T10:26:58;15.85;;;7.20;;
34433;SDS011;34290;48.562;13.384;2022-11-15T10:29:26;15.10;;;7.72;;
34433;SDS011;34290;48.562;13.384;2022-11-15T10:31:54;18.88;;;8.00;;
34433;SDS011;34290;48.562;13.384;2022-11-15T10:34:22;13.00;;;7.40;;
34433;SDS011;34290;48.562;13.384;2022-11-15T10:36:53;14.90;;;7.72;;
34433;SDS011;34290;48.562;13.384;2022-11-15T10:39:23;21.33;;;9.18;;
34433;SDS011;34290;48.562;13.384;2022-11-15T10:41:53;15.60;;;7.93;;
34433;SDS011;34290;48.562;13.384;2022-11-15T10:44:24;15.27;;;8.02;;
34433;SDS011;34290;48.562;13.384;2022-11-15T10:47:20;17.08;;;8.77;;
34433;SDS011;34290;48.562;13.384;2022-11-15T10:49:59;19.63;;;9.10;;
34433;SDS011;34290;48.562;13.384;2022-11-15T10:52:29;20.90;;;9.75;;
34433;SDS011;34290;48.562;13.384;2022-11-15T10:54:59;19.83;;;10.23;;
34433;SDS011;34290;48.562;13.384;2022-11-15T10:57:31;20.85;;;10.02;;
34433;SDS011;34290;48.562;13.384;2022-11-15T11:00:00;21.67;;;10.82;;
34433;SDS011;34290;48.562;13.384;2022-11-15T11:02:34;24.45;;;12.02;;
34433;SDS011;34290;48.562;13.384;2022-11-15T11:05:25;18.77;;;10.52;;
34433;SDS011;34290;48.562;13.384;2022-11-15T11:07:55;25.10;;;12.02;;
34433;SDS011;34290;48.562;13.384;2022-11-15T11:10:24;23.73;;;11.93;;
34433;SDS011;34290;48.562;13.384;2022-11-15T11:12:51;25.95;;;12.15;;
34433;SDS011;34290;48.562;13.384;2022-11-15T11:15:18;23.77;;;12.00;;
34433;SDS011;34290;48.562;13.384;2022-11-15T11:17:51;24.42;;;11.95;;
34433;SDS011;34290;48.562;13.384;2022-11-15T11:20:26;28.48;;;13.18;;
34433;SDS011;34290;48.562;13.384;2022-11-15T11:23:03;25.08;;;12.75;;
34433;SDS011;34290;48.562;13.384;2022-11-15T11:25:44;23.08;;;12.52;;
34433;SDS011;34290;48.562;13.384;2022-11-15T11:28:26;24.35;;;12.50;;
34433;SDS011;34290;48.562;13.384;2022-11-15T11:31:06;26.92;;;13.43;;
34433;SDS011;34290;48.562;13.384;2022-11-15T11:33:47;30.73;;;13.75;;
34433;SDS011;34290;48.562;13.384;2022-11-15T11:36:27;29.55;;;14.55;;
34433;SDS011;34290;48.562;13.384;2022-11-15T11:39:11;28.60;;;14.80;;
34433;SDS011;34290;48.562;13.384;2022-11-15T11:41:50;35.15;;;14.88;;
34433;SDS011;34290;48.562;13.384;2022-11-15T11:44:28;32.20;;;14.45;;
34433;SDS011;34290;48.562;13.384;2022-11-15T11:47:03;27.88;;;13.95;;
34433;SDS011;34290;48.562;13.384;2022-11-15T11:49:49;32.95;;;15.45;;
34433;SDS011;34290;48.562;13.384;2022-11-15T11:52:20;29.65;;;15.75;;
34433;SDS011;34290;48.562;13.384;2022-11-15T11:54:57;32.10;;;15.15;;
34433;SDS011;34290;48.562;13.384;2022-11-15T11:57:39;34.50;;;16.00;;
34433;SDS011;34290;48.562;13.384;2022-11-15T12:00:13;33.28;;;15.82;;
34433;SDS011;34290;48.562;13.384;2022-11-15T12:02:44;34.22;;;15.75;;
34433;SDS011;34290;48.562;13.384;2022-11-15T12:05:20;32.25;;;16.23;;
34433;SDS011;34290;48.562;13.384;2022-11-15T12:07:53;35.53;;;16.00;;
34433;SDS011;34290;48.562;13.384;2022-11-15T12:10:28;35.72;;;15.65;;
34433;SDS011;34290;48.562;13.384;2022-11-15T12:12:58;38.58;;;15.93;;
34433;SDS011;34290;48.562;13.384;2022-11-15T12:15:31;32.17;;;15.77;;
34433;SDS011;34290;48.562;13.384;2022-11-15T12:18:02;40.92;;;16.90;;
34433;SDS011;34290;48.562;13.384;2022-11-15T12:20:32;37.30;;;16.08;;
34433;SDS011;34290;48.562;13.384;2022-11-15T12:23:04;35.85;;;16.08;;
34433;SDS011;34290;48.562;13.384;2022-11-15T12:25:35;32.25;;;15.20;;
34433;SDS011;34290;48.562;13.384;2022-11-15T12:28:12;37.22;;;16.38;;
34433;SDS011;34290;48.562;13.384;2022-11-15T12:30:43;38.53;;;16.60;;
34433;SDS011;34290;48.562;13.384;2022-11-15T12:35:59;35.40;;;15.20;;
34433;SDS011;34290;48.562;13.384;2022-11-15T12:41:18;32.47;;;14.93;;
34433;SDS011;34290;48.562;13.384;2022-11-15T12:43:46;32.67;;;15.05;;
34433;SDS011;34290;48.562;13.384;2022-11-15T12:46:20;34.83;;;15.93;;
34433;SDS011;34290;48.562;13.384;2022-11-15T12:48:54;30.55;;;14.35;;
34433;SDS011;34290;48.562;13.384;2022-11-15T13:03:20;33.47;;;15.00;;
34433;SDS011;34290;48.562;13.384;2022-11-15T13:06:06;37.25;;;16.33;;
34433;SDS011;34290;48.562;13.384;2022-11-15T13:08:37;32.50;;;15.02;;
34433;SDS011;34290;48.562;13.384;2022-11-15T13:17:32;36.70;;;15.90;;
34433;SDS011;34290;48.562;13.384;2022-11-15T13:22:53;38.63;;;17.35;;
34433;SDS011;34290;48.562;13.384;2022-11-15T13:28:26;39.28;;;17.77;;
34433;SDS011;34290;48.562;13.384;2022-11-15T13:30:58;42.03;;;17.70;;
34433;SDS011;34290;48.562;13.384;2022-11-15T13:33:28;41.33;;;17.77;;
34433;SDS011;34290;48.562;13.384;2022-11-15T13:35:58;42.33;;;17.83;;
34433;SDS011;34290;48.562;13.384;2022-11-15T13:38:28;40.28;;;17.45;;
34433;SDS011;34290;48.562;13.384;2022-11-15T13:40:58;40.03;;;17.98;;
34433;SDS011;34290;48.562;13.384;2022-11-15T13:43:36;40.88;;;16.95;;
34433;SDS011;34290;48.562;13.384;2022-11-15T13:46:04;43.22;;;18.45;;
34433;SDS011;34290;48.562;13.384;2022-11-15T13:48:31;42.15;;;17.90;;
34433;SDS011;34290;48.562;13.384;2022-11-15T13:51:00;43.35;;;18.05;;
34433;SDS011;34290;48.562;13.384;2022-11-15T13:53:28;46.03;;;18.98;;
34433;SDS011;34290;48.562;13.384;2022-11-15T13:56:01;43.63;;;16.90;;
34433;SDS011;34290;48.562;13.384;2022-11-15T13:58:31;45.03;;;18.00;;
34433;SDS011;34290;48.562;13.384;2022-11-15T14:00:59;41.67;;;17.83;;
34433;SDS011;34290;48.562;13.384;2022-11-15T14:03:28;44.90;;;17.42;;
34433;SDS011;34290;48.562;13.384;2022-11-15T14:06:04;44.43;;;18.83;;
34433;SDS011;34290;48.562;13.384;2022-11-15T14:08:36;40.17;;;18.05;;
34433;SDS011;34290;48.562;13.384;2022-11-15T14:11:06;41.95;;;17.92;;
34433;SDS011;34290;48.562;13.384;2022-11-15T14:13:35;43.45;;;18.02;;
34433;SDS011;34290;48.562;13.384;2022-11-15T14:16:13;45.93;;;19.17;;
34433;SDS011;34290;48.562;13.384;2022-11-15T14:18:43;47.87;;;18.37;;
34433;SDS011;34290;48.562;13.384;2022-11-15T14:21:11;45.67;;;19.02;;
34433;SDS011;34290;48.562;13.384;2022-11-15T14:23:45;46.27;;;18.53;;
34433;SDS011;34290;48.562;13.384;2022-11-15T14:31:48;50.57;;;18.83;;
34433;SDS011;34290;48.562;13.384;2022-11-15T14:34:15;50.10;;;19.10;;
34433;SDS011;34290;48.562;13.384;2022-11-15T14:36:42;45.93;;;19.03;;
34433;SDS011;34290;48.562;13.384;2022-11-15T14:39:12;42.97;;;17.93;;
34433;SDS011;34290;48.562;13.384;2022-11-15T14:41:41;43.10;;;18.13;;
34433;SDS011;34290;48.562;13.384;2022-11-15T14:44:09;41.67;;;18.77;;
34433;SDS011;34290;48.562;13.384;2022-11-15T14:46:37;38.87;;;16.47;;
34433;SDS011;34290;48.562;13.384;2022-11-15T14:49:04;40.27;;;17.37;;
34433;SDS011;34290;48.562;13.384;2022-11-15T14:51:31;40.57;;;17.43;;
34433;SDS011;34290;48.562;13.384;2022-11-15T14:53:59;39.70;;;17.10;;
34433;SDS011;34290;48.562;13.384;2022-11-15T14:56:26;38.37;;;17.40;;
34433;SDS011;34290;48.562;13.384;2022-11-15T14:58:54;37.60;;;17.00;;
34433;SDS011;34290;48.562;13.384;2022-11-15T15:01:23;41.23;;;17.47;;
34433;SDS011;34290;48.562;13.384;2022-11-15T15:03:51;45.20;;;17.60;;
34433;SDS011;34290;48.562;13.384;2022-11-15T15:06:20;39.27;;;16.57;;
34433;SDS011;34290;48.562;13.384;2022-11-15T15:08:48;38.30;;;16.43;;
34433;SDS011;34290;48.562;13.384;2022-11-15T15:11:16;44.27;;;18.23;;